Pisgah, South Carolina
Current Conditions -  °F | °C
As of 6:29 AM on Saturday 20 Dec 2014 (Local Time) from KSSC Reporting Station
Light Rain Light Rain  
Wind Chill: 39°   Ceiling: Unl
Heat Index: 43°   Visibility: 10mi
Dew Point: 41°   Wind: 6mph
Humidity: 93%   Direction: 60°ENE
Pressure: 30.16"   Gusts: NA
Location:  34.1106°N, 80.4967°W
Report Text: KSSC 201129Z AUTO 06005KT 10SM -RA FEW080 06/05 A3016 RMK AO2
Loading
Personal Weather Stations






























Interactive Weather Map New forecast layout! Learn more

10-Day Weather Forecast

Advertisements
Track Severe Weather on mobile